Airfield :
LOGIN :

Register | Disclaimer

   EN    FR    IT 

 










Legend :    VFR   Marginal VFR   IFR   Intensive IFR   Very Intensive IFR
Visi :
Ceiling :
>= 8 km
>= 3000ft
5 to 8 km
1000 to 3000 ft
1500m to 5 km
500 to 1000 ft
800 to 1500m
200 to 500 ft
< 800m
< 200 ft
Symbols :   Thunderstorms  Fog  Heavy snow  Heavy precipitations  Wind > 20 kt
SIGMETs :     Misc.  Thunderstorms  Icing  Turbulence  Mountain Waves  Volcanic Ashes






- Airport Elevation : 94 ft
- IATA code : QLT


LIRL - Latina Casale (military)

CURRENT METAR :
  • 280755Z VRB01KT 9999 FEW020 BKN040 09/08 Q1018 RMK BKN MON LIB NC VIS MIN 9999 WIND THR12 /////KT WIND THR30 12001KT BLU

EXPIRED METARs :
  • 280655Z 03002KT 9999 FEW020 SCT040 07/06 Q1018 RMK BKN MON LIB NC VIS MIN 9999 WIND THR12 /////KT WIND THR30 02003KT BLU
  • 280555Z 26001KT 9999 FEW020 SCT040 06/06 Q1018 RMK SCT MON LIB VAR RAPID VIS MIN 9999 WIND THR12 /////KT WIND THR30 VRB01KT BLU

TAF TAF LIRL
Valid from the 28 at 09:00 until the 28 at 18:00 UTC


280800Z 2809/2818 13008KT 9999 SCT020 SCT040



MET'MAP, your aeronautical weather chart ! - Copyright ORBIFLY December 2007 - Disclaimer

ORBIFLY MET'MAP TEAM :

Programming & Development : Alexandra Zaïnal
Original concept : Baudouin d'Aumeries
Technical & hardware support : Manuel Goepfert
Assistance : Marc-Olivier Méhu




SOURCES & CREDITS :

   NOAA